Weather

BOSCOMBE DOWN (EGDM)

METAR

EGDM 220450Z AUTO 12007KT 9999 SCT016/// BKN050/// 06/05 Q0994 RERA

TAF

TAF EGDM 130455Z 1306/1324 17015KT 9999 -RA BKN015 TEMPO 1306/1312 17018G28KT 6000 -RADZ BKN010 PROB30 TEMPO 1306/1315 3000 RADZ BKN006 BECMG 1312/1315 BKN008

BRISTOL AIRPORT (EGGD)

METAR

EGGD 220550Z AUTO 11008KT 9999 FEW028 05/04 Q0992

TAF

TAF EGGD 220507Z 2206/2306 11010KT 9999 SCT008 BKN035 PROB40 TEMPO 2206/2211 6000 SHRA BKN008 TEMPO 2211/2218 6000 RA BKN006 PROB30 TEMPO 2211/2218 4000 +RA BKN003 PROB30 TEMPO 2218/2221 6000 RA BKN003 BECMG 2221/2224 OVC006 TEMPO 2300/2306 3000 RA RADZ OVC003

BRIZE NORTON (EGVN)

METAR

EGVN 220520Z 12006KT 9999 FEW014 BKN042 06/06 Q0994 TEMPO SCT010

TAF

TAF EGVN 220459Z 2206/2306 13005KT 9999 SCT030 PROB30 TEMPO 2206/2212 7000 SHRA SCT014TCU TEMPO 2212/2217 4500 SHRA BKN010 PROB30 TEMPO 2217/2224 SCT014 BECMG 2300/2303 SCT015 TEMPO 2300/2306 7000 RA SCT008 BKN015 PROB30 TEMPO 2302/2306 3000 -DZ BKN006

OXFORD (EGTK)

METAR

EGTK 211920Z 08011KT 060V120 5000 BR BKN008 OVC010 04/04 Q0999

Pressure charts

Click to see pressure charts
(redidrection to MetOffice website)